Time;durP1;ratioP1;P1;durP2;ratioP2;P2;SDS_P1;SDS_P2;PMS_P1;PMS_P2;Temp;Humidity;BMP_temperature;BMP_pressure;BME280_temperature;BME280_humidity;BME280_pressure;Samples;Min_cycle;Max_cycle;Signal;HPM_P1;HPM_P2
2022/08/26 00:01:51;;;;;;;3.15;1.85;;;21.50;99.90;;;;;;5003666;28;20061;-79
2022/08/26 00:04:20;;;;;;;2.55;1.65;;;21.50;99.90;;;;;;5002525;28;20110;-79
2022/08/26 00:06:47;;;;;;;3.00;1.60;;;21.40;99.90;;;;;;4999286;28;20566;-80
2022/08/26 00:09:13;;;;;;;8.02;2.05;;;21.40;99.90;;;;;;5000131;28;20047;-78
2022/08/26 00:11:43;;;;;;;1.73;1.50;;;21.40;99.90;;;;;;5003615;28;20520;-79
2022/08/26 00:14:10;;;;;;;2.65;1.55;;;21.40;99.90;;;;;;5004903;28;20137;-78
2022/08/26 00:16:37;;;;;;;3.50;1.73;;;21.30;99.90;;;;;;5002255;28;20058;-79
2022/08/26 00:19:12;;;;;;;6.22;1.88;;;21.30;99.90;;;;;;5013846;28;20396;-80
2022/08/26 00:21:40;;;;;;;4.07;2.13;;;21.30;99.90;;;;;;5017279;28;20054;-79
2022/08/26 00:24:07;;;;;;;4.30;2.05;;;21.30;99.90;;;;;;5016649;28;20100;-79
2022/08/26 00:26:33;;;;;;;3.17;1.80;;;21.30;99.90;;;;;;5000716;28;20069;-79
2022/08/26 00:29:00;;;;;;;3.47;1.70;;;21.20;99.90;;;;;;5017123;28;20085;-80
2022/08/26 00:31:27;;;;;;;5.10;2.17;;;21.30;99.90;;;;;;5000910;28;20085;-80
2022/08/26 00:33:57;;;;;;;6.00;1.70;;;21.20;99.90;;;;;;5017780;28;20061;-79
2022/08/26 00:36:23;;;;;;;3.17;1.75;;;21.20;99.90;;;;;;5018012;28;20092;-79
2022/08/26 00:38:56;;;;;;;4.22;1.45;;;21.10;99.90;;;;;;5018117;28;20463;-79
2022/08/26 00:41:23;;;;;;;3.30;1.60;;;21.10;99.90;;;;;;5014803;28;20077;-79
2022/08/26 00:43:51;;;;;;;2.67;1.75;;;21.10;99.90;;;;;;4998295;28;20046;-79
2022/08/26 00:46:30;;;;;;;2.40;1.50;;;21.10;99.90;;;;;;4998748;28;20050;-79
2022/08/26 00:49:08;;;;;;;5.13;1.85;;;21.10;99.90;;;;;;5014695;28;20085;-80
2022/08/26 00:51:51;;;;;;;3.10;1.77;;;21.20;99.90;;;;;;5009088;28;20140;-80
2022/08/26 00:54:21;;;;;;;2.50;1.48;;;21.10;99.90;;;;;;4981517;28;20587;-80
2022/08/26 00:56:57;;;;;;;1.98;1.75;;;21.10;99.90;;;;;;5000998;28;20115;-79
2022/08/26 00:59:27;;;;;;;4.95;1.70;;;21.10;99.90;;;;;;5001555;28;20082;-79
2022/08/26 01:01:59;;;;;;;6.70;1.83;;;21.10;99.90;;;;;;5000305;28;20057;-79
2022/08/26 01:04:30;;;;;;;3.45;2.05;;;21.20;99.90;;;;;;4999591;28;20050;-80
2022/08/26 01:06:58;;;;;;;3.50;1.73;;;21.20;99.90;;;;;;5000509;28;20093;-80
2022/08/26 01:09:25;;;;;;;4.32;1.88;;;21.10;99.90;;;;;;5015928;28;20088;-79
2022/08/26 01:11:56;;;;;;;4.82;1.60;;;21.10;99.90;;;;;;5017898;28;20107;-80
2022/08/26 01:14:25;;;;;;;5.88;1.80;;;21.10;99.90;;;;;;4997699;28;20050;-79
2022/08/26 01:16:52;;;;;;;4.65;2.13;;;21.10;99.90;;;;;;4997128;28;20089;-78
2022/08/26 01:19:26;;;;;;;4.63;1.75;;;21.20;99.90;;;;;;5014000;28;20050;-79
2022/08/26 01:22:12;;;;;;;5.57;1.90;;;21.10;99.90;;;;;;5000828;28;20106;-79
2022/08/26 01:24:40;;;;;;;2.50;2.00;;;21.00;99.90;;;;;;5001120;28;20057;-79
2022/08/26 01:27:10;;;;;;;2.85;1.90;;;21.00;99.90;;;;;;5001112;28;20081;-79
2022/08/26 01:29:39;;;;;;;4.90;2.00;;;20.90;99.90;;;;;;5000764;28;20050;-79
2022/08/26 01:32:09;;;;;;;3.08;2.10;;;20.90;99.90;;;;;;5001897;28;20713;-79
2022/08/26 01:34:38;;;;;;;6.82;1.83;;;20.90;99.90;;;;;;4993630;28;20137;-80
2022/08/26 01:37:14;;;;;;;4.13;1.90;;;20.90;99.90;;;;;;5001937;28;20058;-79
2022/08/26 01:39:43;;;;;;;3.22;2.10;;;20.80;99.90;;;;;;5011138;28;20530;-78
2022/08/26 01:42:13;;;;;;;5.18;1.80;;;20.80;99.90;;;;;;5012075;28;20050;-79
2022/08/26 01:44:51;;;;;;;3.42;1.90;;;20.80;99.90;;;;;;5011048;28;20125;-80
2022/08/26 01:47:20;;;;;;;4.63;2.13;;;20.70;99.90;;;;;;4993305;28;20084;-79
2022/08/26 01:49:50;;;;;;;5.13;1.73;;;20.70;99.90;;;;;;4996504;28;20050;-80
2022/08/26 01:52:26;;;;;;;2.40;1.75;;;20.70;99.90;;;;;;4999333;28;20104;-80
2022/08/26 01:54:56;;;;;;;2.97;2.10;;;20.60;99.90;;;;;;5002589;28;20061;-79
2022/08/26 01:57:24;;;;;;;6.53;2.40;;;20.60;99.90;;;;;;5002756;28;20081;-79
2022/08/26 01:59:53;;;;;;;4.07;2.50;;;20.60;99.90;;;;;;5002889;28;20133;-79
2022/08/26 02:02:21;;;;;;;2.45;2.15;;;20.70;99.90;;;;;;5003029;28;20084;-79
2022/08/26 02:04:55;;;;;;;5.63;2.85;;;20.70;99.90;;;;;;5003919;28;20355;-79
2022/08/26 02:07:23;;;;;;;4.13;2.45;;;20.60;99.90;;;;;;5003599;28;20057;-80
2022/08/26 02:09:52;;;;;;;5.72;2.67;;;20.70;99.90;;;;;;4996195;28;20047;-78
2022/08/26 02:12:19;;;;;;;3.33;2.47;;;20.60;99.90;;;;;;5002770;28;20089;-79
2022/08/26 02:14:54;;;;;;;4.05;2.45;;;20.50;99.90;;;;;;5004126;28;20096;-79
2022/08/26 02:17:27;;;;;;;3.67;2.83;;;20.60;99.90;;;;;;5003821;28;20081;-80
2022/08/26 02:19:55;;;;;;;5.72;2.28;;;20.60;99.90;;;;;;5007663;28;20054;-80
2022/08/26 02:22:23;;;;;;;3.13;2.53;;;20.60;99.90;;;;;;5008603;28;20656;-80
2022/08/26 02:24:59;;;;;;;3.03;2.30;;;20.60;99.90;;;;;;5007919;28;20057;-80
2022/08/26 02:27:31;;;;;;;6.78;2.30;;;20.50;99.90;;;;;;4995889;28;20140;-78
2022/08/26 02:30:07;;;;;;;2.97;2.30;;;20.50;99.90;;;;;;5007243;28;20045;-79
2022/08/26 02:32:36;;;;;;;3.65;2.40;;;20.60;99.90;;;;;;5005961;28;20054;-80
2022/08/26 02:35:07;;;;;;;3.13;2.20;;;20.50;99.90;;;;;;5006912;28;20511;-80
2022/08/26 02:37:34;;;;;;;3.50;2.35;;;20.50;99.90;;;;;;5010872;28;20046;-79
2022/08/26 02:40:03;;;;;;;3.03;2.22;;;20.40;99.90;;;;;;5009277;28;20156;-79
2022/08/26 02:42:31;;;;;;;3.30;2.60;;;20.40;99.90;;;;;;5009556;28;20085;-80
2022/08/26 02:44:58;;;;;;;3.70;2.10;;;20.40;99.90;;;;;;5009342;28;20051;-80
2022/08/26 02:47:26;;;;;;;3.92;2.55;;;20.40;99.90;;;;;;5009537;28;20046;-79
2022/08/26 02:49:54;;;;;;;2.80;2.50;;;20.40;99.90;;;;;;5010117;28;20108;-81
2022/08/26 02:52:21;;;;;;;2.90;2.60;;;20.30;99.90;;;;;;5010963;28;20092;-80
2022/08/26 02:54:48;;;;;;;4.35;2.53;;;20.40;99.90;;;;;;5010570;28;20050;-79
2022/08/26 02:57:15;;;;;;;3.17;2.20;;;20.30;99.90;;;;;;5011266;28;20088;-80
2022/08/26 02:59:42;;;;;;;4.32;2.35;;;20.20;99.90;;;;;;5012010;28;20050;-80
2022/08/26 03:02:10;;;;;;;4.68;2.33;;;20.20;99.90;;;;;;5011470;28;20049;-79
2022/08/26 03:04:39;;;;;;;3.33;2.30;;;20.20;99.90;;;;;;5011578;28;20503;-79
2022/08/26 03:07:05;;;;;;;7.22;2.80;;;20.20;99.90;;;;;;5000568;28;20050;-79
2022/08/26 03:09:32;;;;;;;6.50;3.13;;;20.20;99.90;;;;;;5011425;28;20133;-80
2022/08/26 03:11:59;;;;;;;2.60;2.40;;;20.20;99.90;;;;;;5012391;28;20085;-80
2022/08/26 03:14:26;;;;;;;4.55;2.53;;;20.20;99.90;;;;;;5010456;28;20118;-79
2022/08/26 03:16:53;;;;;;;5.22;3.10;;;20.20;99.90;;;;;;5011949;28;20081;-80
2022/08/26 03:19:23;;;;;;;5.70;2.92;;;20.20;99.90;;;;;;5013161;28;20198;-79
2022/08/26 03:21:51;;;;;;;;;;;20.10;99.90;;;;;;5012944;28;20419;-79
2022/08/26 03:24:24;;;;;;;2.97;2.40;;;20.10;99.90;;;;;;4999096;28;19928;-79
2022/08/26 03:26:50;;;;;;;2.97;2.70;;;20.00;99.90;;;;;;4998750;28;20056;-79
2022/08/26 03:32:24;;;;;;;4.80;3.05;;;20.10;99.90;;;;;;4938780;29;20067;-80
2022/08/26 03:34:53;;;;;;;6.10;3.22;;;20.10;99.90;;;;;;4937325;29;20126;-80
2022/08/26 03:37:20;;;;;;;5.50;2.53;;;20.00;99.90;;;;;;4973446;28;20057;-79
2022/08/26 03:39:47;;;;;;;3.80;2.85;;;20.10;99.90;;;;;;5012577;28;20688;-79
2022/08/26 03:42:14;;;;;;;3.75;3.15;;;20.10;99.90;;;;;;5012179;28;20050;-80
2022/08/26 03:44:41;;;;;;;5.30;2.60;;;20.00;99.90;;;;;;5014724;28;20114;-80
2022/08/26 03:47:09;;;;;;;4.10;2.85;;;20.10;99.90;;;;;;4996494;28;20058;-80
2022/08/26 03:49:36;;;;;;;5.25;3.22;;;20.10;99.90;;;;;;5014544;28;20046;-79
2022/08/26 03:52:03;;;;;;;4.90;3.40;;;20.10;99.90;;;;;;5014542;28;20046;-79
2022/08/26 03:54:30;;;;;;;3.65;3.08;;;20.10;99.90;;;;;;4997857;28;20085;-78
2022/08/26 03:56:57;;;;;;;4.93;3.05;;;20.10;99.90;;;;;;5003118;28;20062;-79
2022/08/26 03:59:24;;;;;;;3.88;2.70;;;20.10;99.90;;;;;;5017912;28;20073;-78
2022/08/26 04:01:50;;;;;;;5.47;2.75;;;20.10;99.90;;;;;;5018876;28;20077;-79
2022/08/26 04:04:17;;;;;;;5.93;3.40;;;20.10;99.90;;;;;;5002693;28;20137;-79
2022/08/26 04:06:49;;;;;;;3.85;2.70;;;20.10;99.90;;;;;;5015903;28;20042;-79
2022/08/26 04:09:19;;;;;;;5.53;2.88;;;20.00;99.90;;;;;;5015894;28;20050;-79
2022/08/26 04:11:47;;;;;;;5.03;2.97;;;20.10;99.90;;;;;;5016167;28;20054;-79
2022/08/26 04:14:19;;;;;;;9.07;2.95;;;20.10;99.90;;;;;;5001023;28;20053;-80
2022/08/26 04:16:47;;;;;;;4.57;2.67;;;20.00;99.90;;;;;;5000626;28;20538;-79
2022/08/26 04:19:15;;;;;;;5.50;3.10;;;20.00;99.90;;;;;;5000702;28;20092;-79
2022/08/26 04:21:43;;;;;;;6.00;2.95;;;19.90;99.90;;;;;;5013587;28;20396;-79
2022/08/26 04:24:12;;;;;;;2.25;2.05;;;19.90;99.90;;;;;;5016328;28;20050;-79
2022/08/26 04:26:39;;;;;;;4.00;2.83;;;19.90;99.90;;;;;;4997742;28;20085;-79
2022/08/26 04:29:22;;;;;;;3.10;2.80;;;19.90;99.90;;;;;;4999870;28;20567;-79
2022/08/26 04:31:49;;;;;;;7.35;3.10;;;19.90;99.90;;;;;;4999522;28;20133;-79
2022/08/26 04:34:23;;;;;;;3.80;2.70;;;19.80;99.90;;;;;;4998673;28;20078;-79
2022/08/26 04:36:54;;;;;;;3.15;2.70;;;19.90;99.90;;;;;;4998625;28;20054;-79
2022/08/26 04:39:21;;;;;;;4.25;2.60;;;19.80;99.90;;;;;;5017772;28;20131;-79
2022/08/26 04:41:49;;;;;;;3.28;2.90;;;19.70;99.90;;;;;;5017768;28;20049;-79
2022/08/26 04:44:17;;;;;;;4.68;3.13;;;19.60;99.90;;;;;;4996603;28;20127;-78
2022/08/26 04:46:44;;;;;;;4.55;2.85;;;19.60;99.90;;;;;;4998563;28;20089;-80
2022/08/26 04:49:11;;;;;;;4.18;3.10;;;19.60;99.90;;;;;;5007111;28;20081;-79
2022/08/26 04:51:39;;;;;;;5.45;2.70;;;19.60;99.90;;;;;;5002157;28;20078;-79
2022/08/26 04:54:06;;;;;;;4.38;2.78;;;19.60;99.90;;;;;;4981583;28;20129;-78
2022/08/26 04:56:36;;;;;;;4.28;3.55;;;19.70;99.90;;;;;;4999307;28;20084;-79
2022/08/26 04:59:06;;;;;;;7.75;3.30;;;19.70;99.90;;;;;;4998680;28;20050;-78
2022/08/26 05:01:48;;;;;;;3.20;2.67;;;19.70;99.90;;;;;;5016634;28;20077;-79
2022/08/26 05:04:17;;;;;;;5.45;3.55;;;19.60;99.90;;;;;;5016474;28;20046;-79
2022/08/26 05:06:45;;;;;;;3.33;2.42;;;19.60;99.90;;;;;;4998517;28;20058;-78
2022/08/26 05:09:13;;;;;;;4.80;2.80;;;19.60;99.90;;;;;;4998648;28;20046;-78
2022/08/26 05:11:41;;;;;;;3.97;2.42;;;19.70;99.90;;;;;;5006525;28;20475;-79
2022/08/26 05:14:08;;;;;;;3.70;2.90;;;19.70;99.90;;;;;;5001416;28;20053;-79
2022/08/26 05:16:35;;;;;;;3.08;2.45;;;19.70;99.90;;;;;;5001022;28;20047;-79
2022/08/26 05:19:02;;;;;;;4.43;2.90;;;19.70;99.90;;;;;;4984247;28;20099;-79
2022/08/26 05:21:29;;;;;;;3.90;2.72;;;19.70;99.90;;;;;;5001697;28;20046;-79
2022/08/26 05:23:56;;;;;;;3.58;2.60;;;19.70;99.90;;;;;;5001185;28;20788;-79
2022/08/26 05:26:25;;;;;;;5.10;2.58;;;19.70;99.90;;;;;;4997898;28;20342;-78
2022/08/26 05:28:53;;;;;;;6.47;2.30;;;19.70;99.90;;;;;;4997594;28;20085;-78
2022/08/26 05:31:27;;;;;;;3.55;2.60;;;19.70;99.90;;;;;;5009596;28;20077;-78
2022/08/26 05:33:56;;;;;;;4.57;2.60;;;19.80;99.90;;;;;;4995992;28;20050;-79
2022/08/26 05:36:26;;;;;;;3.38;2.33;;;19.80;99.90;;;;;;5003533;28;20046;-78
2022/08/26 05:38:54;;;;;;;4.13;3.03;;;19.80;99.90;;;;;;5003098;28;20416;-79
2022/08/26 05:41:29;;;;;;;3.78;2.10;;;19.90;99.90;;;;;;4985183;28;20081;-79
2022/08/26 05:44:02;;;;;;;;;;;19.90;99.90;;;;;;5005832;28;20061;-79
2022/08/26 05:46:28;;;;;;;5.20;2.40;;;20.00;99.90;;;;;;5005477;28;20451;-79
2022/08/26 05:48:56;;;;;;;5.97;2.38;;;20.00;99.90;;;;;;5004915;28;20054;-79
2022/08/26 05:51:24;;;;;;;4.13;2.70;;;20.00;99.90;;;;;;4988274;28;20130;-79
2022/08/26 05:53:52;;;;;;;4.50;2.45;;;20.20;99.90;;;;;;4999835;28;20082;-78
2022/08/26 05:56:26;;;;;;;7.20;2.30;;;20.20;99.90;;;;;;5005619;28;20050;-79
2022/08/26 05:58:55;;;;;;;5.47;2.58;;;20.20;99.90;;;;;;5012453;28;20074;-78
2022/08/26 06:01:25;;;;;;;3.50;2.65;;;20.30;99.90;;;;;;5010630;28;20108;-79
2022/08/26 06:03:55;;;;;;;4.82;2.30;;;20.30;99.90;;;;;;4998508;28;20078;-76
2022/08/26 06:06:28;;;;;;;6.25;2.75;;;20.40;99.90;;;;;;4997937;28;20057;-80
2022/08/26 06:08:57;;;;;;;;;;;20.50;99.90;;;;;;5010558;28;20105;-79
2022/08/26 06:11:26;;;;;;;5.90;2.38;;;20.60;99.90;;;;;;5008178;28;19921;-79
2022/08/26 06:13:54;;;;;;;2.88;2.45;;;20.60;99.90;;;;;;5009834;28;20046;-79
2022/08/26 06:16:28;;;;;;;3.58;2.25;;;20.60;99.90;;;;;;4997033;28;20132;-80
2022/08/26 06:18:55;;;;;;;3.88;2.53;;;20.70;99.90;;;;;;5006833;28;20078;-79
2022/08/26 06:21:30;;;;;;;2.65;2.15;;;20.80;99.90;;;;;;5006175;28;20078;-79
2022/08/26 06:26:55;;;;;;;8.98;2.08;;;20.90;99.90;;;;;;5006005;28;20137;-80
2022/08/26 06:29:24;;;;;;;4.03;2.30;;;21.00;99.90;;;;;;5010387;28;20049;-79
2022/08/26 06:31:53;;;;;;;4.88;2.35;;;21.10;99.90;;;;;;5009207;28;20073;-80
2022/08/26 06:34:22;;;;;;;2.55;2.25;;;21.10;99.90;;;;;;4995564;28;20046;-80
2022/08/26 06:36:57;;;;;;;3.35;2.20;;;21.20;99.90;;;;;;5010194;28;20117;-79
2022/08/26 06:39:24;;;;;;;2.72;2.45;;;21.20;99.90;;;;;;5013288;28;20046;-79
2022/08/26 06:41:50;;;;;;;3.63;2.40;;;21.30;99.90;;;;;;5011148;28;20085;-79
2022/08/26 06:44:18;;;;;;;2.83;2.40;;;21.40;99.90;;;;;;5011502;28;20093;-79
2022/08/26 06:46:46;;;;;;;9.70;2.50;;;21.50;99.90;;;;;;4997421;28;20046;-82
2022/08/26 06:49:17;;;;;;;3.85;2.42;;;21.50;99.90;;;;;;4995396;28;20046;-79
2022/08/26 06:51:52;;;;;;;2.38;2.17;;;21.60;99.90;;;;;;4986062;28;20426;-80
2022/08/26 06:54:19;;;;;;;5.15;2.80;;;21.70;99.90;;;;;;5004016;28;20224;-78
2022/08/26 06:56:45;;;;;;;2.60;2.15;;;21.80;99.90;;;;;;5004492;28;20078;-78
2022/08/26 06:59:14;;;;;;;5.10;2.55;;;21.80;99.90;;;;;;5004927;28;20042;-80
2022/08/26 07:01:43;;;;;;;3.83;2.30;;;22.00;99.90;;;;;;5014344;28;20074;-81
2022/08/26 07:04:13;;;;;;;6.80;2.03;;;22.10;99.90;;;;;;5009122;28;20050;-80
2022/08/26 07:06:45;;;;;;;8.90;2.50;;;22.10;99.90;;;;;;5004982;28;20297;-79
2022/08/26 07:09:12;;;;;;;2.70;1.92;;;22.30;99.90;;;;;;5002783;28;20069;-81
2022/08/26 07:11:39;;;;;;;3.50;2.20;;;22.30;99.90;;;;;;5003108;28;20066;-81
2022/08/26 07:14:07;;;;;;;5.20;2.20;;;22.40;99.90;;;;;;4991328;28;20132;-79
2022/08/26 07:16:34;;;;;;;2.20;2.00;;;22.50;99.90;;;;;;4993003;28;20473;-79
2022/08/26 07:19:02;;;;;;;4.05;2.28;;;22.60;99.90;;;;;;4991784;28;20516;-83
2022/08/26 07:21:39;;;;;;;4.00;2.20;;;22.60;99.90;;;;;;4995638;28;20128;-79
2022/08/26 07:24:06;;;;;;;3.53;2.13;;;22.70;99.90;;;;;;5008151;28;20058;-82
2022/08/26 07:26:33;;;;;;;6.35;2.28;;;22.80;99.90;;;;;;5005488;28;20468;-81
2022/08/26 07:29:01;;;;;;;5.43;2.40;;;22.90;99.90;;;;;;4996799;28;20069;-81
2022/08/26 07:31:30;;;;;;;3.85;2.30;;;22.90;99.90;;;;;;5010792;28;20129;-83
2022/08/26 07:34:06;;;;;;;3.90;2.05;;;23.00;99.90;;;;;;5014782;28;20054;-80
2022/08/26 07:36:33;;;;;;;2.97;1.92;;;23.20;99.90;;;;;;4997030;28;20049;-79
2022/08/26 07:39:00;;;;;;;3.47;2.10;;;23.20;99.90;;;;;;5009696;28;20049;-79
2022/08/26 07:41:27;;;;;;;5.85;1.90;;;23.20;99.90;;;;;;5005686;28;20145;-82
2022/08/26 07:43:55;;;;;;;2.88;2.13;;;23.20;99.90;;;;;;5010744;28;20058;-79
2022/08/26 07:46:22;;;;;;;3.22;2.35;;;23.30;99.90;;;;;;5008092;28;20050;-82
2022/08/26 07:48:56;;;;;;;5.93;1.98;;;23.30;99.90;;;;;;5002369;28;20411;-80
2022/08/26 07:51:23;;;;;;;5.75;2.05;;;23.40;99.90;;;;;;5006509;28;20050;-80
2022/08/26 07:53:50;;;;;;;8.32;2.25;;;23.40;99.90;;;;;;5004290;28;20069;-80
2022/08/26 07:56:18;;;;;;;8.35;2.20;;;23.50;99.90;;;;;;4989003;28;20420;-80
2022/08/26 07:58:46;;;;;;;4.43;2.13;;;23.60;99.90;;;;;;5008034;28;20046;-81
2022/08/26 08:01:18;;;;;;;5.35;2.10;;;23.60;99.90;;;;;;5009560;28;20050;-82
2022/08/26 08:03:45;;;;;;;4.70;2.33;;;23.70;99.90;;;;;;4991926;28;20463;-81
2022/08/26 08:06:17;;;;;;;3.17;1.90;;;23.70;99.90;;;;;;5012383;28;20076;-80
2022/08/26 08:08:45;;;;;;;2.65;2.05;;;23.70;99.90;;;;;;5001681;28;20129;-79
2022/08/26 08:11:13;;;;;;;5.65;2.20;;;23.80;99.90;;;;;;4989359;28;20092;-78
2022/08/26 08:13:40;;;;;;;5.95;2.15;;;23.90;99.90;;;;;;5008879;28;20125;-81
2022/08/26 08:16:07;;;;;;;5.80;2.40;;;23.90;99.90;;;;;;5008320;28;20081;-78
2022/08/26 08:18:39;;;;;;;4.72;2.50;;;24.00;99.90;;;;;;5007513;28;20042;-81
2022/08/26 08:21:06;;;;;;;4.95;2.40;;;24.00;99.90;;;;;;5010862;28;20054;-82
2022/08/26 08:23:54;;;;;;;3.05;1.90;;;24.10;99.90;;;;;;4994153;28;20133;-78
2022/08/26 08:26:22;;;;;;;3.55;1.95;;;24.20;99.90;;;;;;4994422;28;20496;-82
2022/08/26 08:28:49;;;;;;;6.00;2.00;;;24.20;99.90;;;;;;4994640;28;20049;-80
2022/08/26 08:31:25;;;;;;;4.15;2.10;;;24.30;99.90;;;;;;5011014;28;20067;-78
2022/08/26 08:34:12;;;;;;;5.00;2.70;;;24.30;99.90;;;;;;5014714;28;20050;-80
2022/08/26 08:36:38;;;;;;;5.05;2.13;;;24.40;99.90;;;;;;5003369;28;20350;-80
2022/08/26 08:39:07;;;;;;;4.88;2.50;;;24.50;99.90;;;;;;5008804;28;20077;-80
2022/08/26 08:41:53;;;;;;;6.60;1.85;;;24.60;99.90;;;;;;5011233;28;20046;-80
2022/08/26 08:44:23;;;;;;;4.07;2.20;;;24.70;99.90;;;;;;5006967;28;20542;-80
2022/08/26 08:46:59;;;;;;;3.20;1.92;;;24.70;99.90;;;;;;4988975;28;20046;-80
2022/08/26 08:49:27;;;;;;;5.10;2.55;;;24.80;99.90;;;;;;4994013;28;20122;-81
2022/08/26 08:51:58;;;;;;;10.65;2.45;;;24.90;99.90;;;;;;5005532;28;20074;-81
2022/08/26 08:54:25;;;;;;;2.80;1.92;;;24.90;99.90;;;;;;5008672;28;20054;-79
2022/08/26 08:57:02;;;;;;;2.63;1.77;;;25.00;99.90;;;;;;5001303;28;20168;-82
2022/08/26 08:59:35;;;;;;;11.32;2.35;;;25.00;99.90;;;;;;5006495;28;20054;-80
2022/08/26 09:02:41;;;;;;;6.45;2.30;;;25.10;99.90;;;;;;5007826;28;20101;-78
2022/08/26 09:05:20;;;;;;;6.20;2.08;;;25.00;99.90;;;;;;4987429;28;20058;-81
2022/08/26 09:07:50;;;;;;;7.95;2.15;;;25.10;99.90;;;;;;4993825;28;20046;-81
2022/08/26 09:10:28;;;;;;;3.22;2.10;;;25.20;99.90;;;;;;5002432;28;20077;-79
2022/08/26 09:12:55;;;;;;;4.63;2.00;;;25.30;99.90;;;;;;5009347;28;20050;-79
2022/08/26 09:15:37;;;;;;;3.47;2.25;;;25.30;99.90;;;;;;5004634;28;20049;-82
2022/08/26 09:18:22;;;;;;;6.20;2.22;;;25.40;99.90;;;;;;5007918;28;20077;-80
2022/08/26 09:21:00;;;;;;;8.60;2.28;;;25.40;99.90;;;;;;4994861;28;20125;-80
2022/08/26 09:23:27;;;;;;;4.03;2.08;;;25.50;99.90;;;;;;5009873;28;20623;-80
2022/08/26 09:26:03;;;;;;;4.85;2.30;;;25.50;99.90;;;;;;5003376;28;20056;-81
2022/08/26 09:28:30;;;;;;;3.72;2.38;;;25.60;99.90;;;;;;5003422;28;20050;-81
2022/08/26 09:31:01;;;;;;;4.72;2.20;;;25.60;99.90;;;;;;5012486;28;20515;-80
2022/08/26 09:33:31;;;;;;;6.80;2.38;;;25.60;99.90;;;;;;5012346;28;20056;-80
2022/08/26 09:36:33;;;;;;;3.72;2.08;;;25.80;99.90;;;;;;5012979;28;20070;-83
2022/08/26 09:39:26;;;;;;;4.95;2.00;;;25.70;99.90;;;;;;5010317;28;20058;-81
2022/08/26 09:42:09;;;;;;;4.13;2.40;;;25.80;99.90;;;;;;5004576;28;20050;-80
2022/08/26 09:44:58;;;;;;;5.78;2.72;;;25.80;99.90;;;;;;5004457;28;20054;-80
2022/08/26 09:47:37;;;;;;;6.68;2.53;;;25.90;99.90;;;;;;5006065;28;20047;-81
2022/08/26 09:50:08;;;;;;;4.80;2.28;;;26.00;99.90;;;;;;5003938;28;20046;-80
2022/08/26 09:52:38;;;;;;;5.90;2.35;;;26.00;99.90;;;;;;5006303;28;20050;-80
2022/08/26 09:55:08;;;;;;;12.65;2.38;;;26.00;99.90;;;;;;5005324;28;20053;-80
2022/08/26 09:57:47;;;;;;;5.75;2.25;;;26.10;99.90;;;;;;5006241;28;20045;-80
2022/08/26 10:00:26;;;;;;;6.13;2.30;;;26.20;99.90;;;;;;5008603;28;20440;-81
2022/08/26 10:02:53;;;;;;;4.60;2.00;;;26.20;99.90;;;;;;5001974;28;20064;-80
2022/08/26 10:05:49;;;;;;;3.67;2.10;;;26.30;99.90;;;;;;5006855;28;20053;-80
2022/08/26 10:08:20;;;;;;;8.73;2.65;;;26.40;99.90;;;;;;4951573;28;20057;-80
2022/08/26 10:10:49;;;;;;;8.50;2.38;;;26.40;99.90;;;;;;5007930;28;20138;-81
2022/08/26 10:13:34;;;;;;;7.97;2.28;;;26.40;99.90;;;;;;5010214;28;20050;-81
2022/08/26 10:16:20;;;;;;;6.25;2.60;;;26.50;99.90;;;;;;5005471;28;20429;-81
2022/08/26 10:19:05;;;;;;;9.93;2.33;;;26.50;99.90;;;;;;5004913;28;20081;-81
2022/08/26 10:21:54;;;;;;;5.57;2.67;;;26.60;99.90;;;;;;5005325;28;20056;-81
2022/08/26 10:24:29;;;;;;;4.93;2.22;;;26.70;99.90;;;;;;4989956;28;20076;-81
2022/08/26 10:27:09;;;;;;;6.43;2.42;;;26.70;99.90;;;;;;4988392;28;20077;-79
2022/08/26 10:29:47;;;;;;;8.20;2.30;;;26.80;99.90;;;;;;4994498;28;20546;-80
2022/08/26 10:32:30;;;;;;;6.53;2.38;;;26.80;99.90;;;;;;5006429;28;20464;-80
2022/08/26 10:34:57;;;;;;;6.07;3.00;;;26.90;99.90;;;;;;5007955;28;20046;-80
2022/08/26 10:37:33;;;;;;;7.68;2.78;;;27.00;99.90;;;;;;5006440;28;20055;-81
2022/08/26 10:40:11;;;;;;;10.90;2.97;;;27.00;99.90;;;;;;5003027;28;20050;-81
2022/08/26 10:43:00;;;;;;;4.78;3.05;;;27.00;99.90;;;;;;5007648;28;20126;-81
2022/08/26 10:45:41;;;;;;;5.45;2.65;;;27.10;99.90;;;;;;5007848;28;20124;-83
2022/08/26 10:48:15;;;;;;;4.10;3.03;;;27.10;99.90;;;;;;4993204;28;20054;-80
2022/08/26 10:50:46;;;;;;;5.30;2.90;;;27.20;99.90;;;;;;5006597;28;20415;-81
2022/08/26 10:53:16;;;;;;;7.45;2.85;;;27.20;99.90;;;;;;5006130;28;20045;-80
2022/08/26 10:56:21;;;;;;;6.72;2.80;;;27.30;99.90;;;;;;4993798;28;20093;-80
2022/08/26 10:59:04;;;;;;;7.07;2.75;;;27.40;99.90;;;;;;4998735;28;20483;-81
2022/08/26 11:01:47;;;;;;;9.52;3.55;;;27.40;99.90;;;;;;5007022;28;20069;-81
2022/08/26 11:04:31;;;;;;;4.53;2.70;;;27.50;99.90;;;;;;4992489;28;20121;-80
2022/08/26 11:07:39;;;;;;;11.40;2.55;;;27.50;99.90;;;;;;5011234;28;20076;-81
2022/08/26 11:10:19;;;;;;;3.90;2.50;;;27.50;99.90;;;;;;5009612;28;20046;-81
2022/08/26 11:12:47;;;;;;;3.97;2.53;;;27.60;99.90;;;;;;5013772;28;20120;-81
2022/08/26 11:15:20;;;;;;;8.97;2.70;;;27.50;99.90;;;;;;5000028;28;20049;-81
2022/08/26 11:17:50;;;;;;;11.00;3.25;;;27.60;99.90;;;;;;5007646;28;20393;-81
2022/08/26 11:20:35;;;;;;;4.82;2.50;;;27.60;99.90;;;;;;4998291;28;20050;-81
2022/08/26 11:23:11;;;;;;;5.70;2.13;;;27.60;99.90;;;;;;5004221;28;20054;-81
2022/08/26 11:26:13;;;;;;;5.57;3.00;;;27.60;99.90;;;;;;4994190;28;20073;-82
2022/08/26 11:29:00;;;;;;;4.75;2.85;;;27.60;99.90;;;;;;4997278;28;20169;-83
2022/08/26 11:31:29;;;;;;;12.85;3.95;;;27.70;99.90;;;;;;5011857;28;20471;-81
2022/08/26 11:34:02;;;;;;;4.38;3.03;;;27.60;99.90;;;;;;5013012;28;20436;-80
2022/08/26 11:36:37;;;;;;;5.28;2.50;;;27.60;99.90;;;;;;5011740;28;20054;-84
2022/08/26 11:39:27;;;;;;;4.93;3.53;;;27.60;99.90;;;;;;5009156;28;20078;-80
2022/08/26 11:41:58;;;;;;;4.82;3.13;;;27.60;99.90;;;;;;4996815;28;20137;-81
2022/08/26 11:44:34;;;;;;;9.68;3.38;;;27.60;99.90;;;;;;4992097;28;20132;-81
2022/08/26 11:47:01;;;;;;;6.72;3.65;;;27.50;99.90;;;;;;5012643;28;20042;-79
2022/08/26 11:49:31;;;;;;;3.25;2.95;;;27.50;99.90;;;;;;4986237;28;20069;-79
2022/08/26 11:52:17;;;;;;;8.13;3.38;;;27.50;99.90;;;;;;5007882;28;20042;-81
2022/08/26 11:55:13;;;;;;;4.90;3.38;;;27.50;99.90;;;;;;5004993;28;20420;-81
2022/08/26 11:57:45;;;;;;;5.38;3.38;;;27.50;99.90;;;;;;4995347;28;20523;-81
2022/08/26 12:00:21;;;;;;;7.07;3.40;;;27.50;99.90;;;;;;5000223;28;20084;-81
2022/08/26 12:02:50;;;;;;;6.88;3.78;;;27.50;99.90;;;;;;4998406;28;20077;-80
2022/08/26 12:05:34;;;;;;;5.67;3.70;;;27.50;99.90;;;;;;5010540;28;20049;-81
2022/08/26 12:08:10;;;;;;;11.25;3.75;;;27.50;99.90;;;;;;5006301;28;20478;-81
2022/08/26 12:10:38;;;;;;;4.57;3.45;;;27.50;99.90;;;;;;5004223;28;20042;-81
2022/08/26 12:13:06;;;;;;;7.68;3.20;;;27.60;99.90;;;;;;5013688;28;20091;-81
2022/08/26 12:15:34;;;;;;;4.07;3.50;;;27.60;99.90;;;;;;4989910;28;20050;-80
2022/08/26 12:18:20;;;;;;;7.22;3.97;;;27.60;99.90;;;;;;5008942;28;20478;-81
2022/08/26 12:20:58;;;;;;;6.28;3.90;;;27.70;99.90;;;;;;5003275;28;20125;-83
2022/08/26 12:23:34;;;;;;;7.35;4.00;;;27.70;99.90;;;;;;5010408;28;20472;-81
2022/08/26 12:26:25;;;;;;;5.80;3.90;;;27.70;99.90;;;;;;4996285;28;20173;-81
2022/08/26 12:28:57;;;;;;;5.13;3.55;;;27.70;99.90;;;;;;4999374;28;20671;-80
2022/08/26 12:31:43;;;;;;;6.10;3.63;;;27.70;99.90;;;;;;5000925;28;20046;-79
2022/08/26 12:34:16;;;;;;;8.13;3.63;;;27.80;99.90;;;;;;5009324;28;20050;-79
2022/08/26 12:36:55;;;;;;;3.67;3.22;;;27.70;99.90;;;;;;5003313;28;20496;-81
2022/08/26 12:39:25;;;;;;;7.30;4.15;;;27.80;99.90;;;;;;5007773;28;20050;-80
2022/08/26 12:41:54;;;;;;;6.25;3.30;;;27.80;99.90;;;;;;5011445;28;20423;-80
2022/08/26 12:44:32;;;;;;;7.00;3.30;;;27.80;99.90;;;;;;5004054;28;20080;-82
2022/08/26 12:47:09;;;;;;;6.65;3.15;;;27.80;99.90;;;;;;5008229;28;20232;-81
2022/08/26 12:49:38;;;;;;;8.05;3.55;;;27.70;99.90;;;;;;5007650;28;20570;-82
2022/08/26 12:52:08;;;;;;;4.28;3.40;;;27.70;99.90;;;;;;4988759;28;20081;-81
2022/08/26 12:57:34;;;;;;;6.90;3.60;;;27.70;99.90;;;;;;5006175;28;20423;-81
2022/08/26 13:00:26;;;;;;;5.78;3.80;;;27.70;99.90;;;;;;5005683;28;20049;-82
2022/08/26 13:02:54;;;;;;;9.40;4.10;;;27.70;99.90;;;;;;5006543;28;20077;-81
2022/08/26 13:05:27;;;;;;;4.38;3.67;;;27.70;99.90;;;;;;5001064;28;20049;-80
2022/08/26 13:08:12;;;;;;;4.50;3.53;;;27.70;99.90;;;;;;5005566;28;20038;-82
2022/08/26 13:10:43;;;;;;;7.53;4.10;;;27.70;99.90;;;;;;4991633;28;20042;-79
2022/08/26 13:13:09;;;;;;;6.10;3.67;;;27.70;99.90;;;;;;5015585;28;20532;-79
2022/08/26 13:15:36;;;;;;;6.47;3.85;;;27.80;99.90;;;;;;4989443;28;20136;-81
2022/08/26 13:18:03;;;;;;;6.68;3.22;;;27.80;99.90;;;;;;5004460;28;20096;-80
2022/08/26 13:20:31;;;;;;;7.40;3.42;;;27.80;99.90;;;;;;5002875;28;20083;-81
2022/08/26 13:22:58;;;;;;;5.03;3.65;;;27.80;99.90;;;;;;5009007;28;20088;-81